Rechercher aéroport 
image banner adimage banner adimage banner ad
image banner ad

CA27 - Alcatraz

Situé à San Francisco, United States

ICAO - CA27, IATA -

Données fournies par Airmate  

Information générale

Coordonnées: N37°49'33" W122°25'17"
Élévation : 70 feet MSL.
Variation magnétique : 16° East
Voir autres Aéroports à California

Données opérationnelles

Special qualification required
Heure actuelle UTC:
Heure actuelle locale:
Météo à : KOAK - Metropolitan Oakland Intl ( 21 km )
METAR: KOAK 020553Z 29007KT 10SM FEW012 17/12 A3010 RMK AO2 SLP190 T01670122 10211 20167 51009
TAF: KOAK 020533Z 0206/0312 29010KT P6SM SCT012 FM020630 30008KT P6SM BKN012 FM020900 32007KT P6SM OVC008 FM021500 30006KT P6SM BKN012 FM021730 31005KT P6SM FEW014 FM022100 30014KT P6SM FEW015 FM030500 29008KT P6SM SCT012 FM030800 30008KT P6SM BKN012
Voir NOTAMs / SUP AIP / TFR affectant cet aéroport [VIEW]
Fréquences de communication: [VIEW]

Pistes:

Coordonnées de l'aéroport

Adresse: San Francisco United States

Vue satellite de CA27